Time;durP1;ratioP1;P1;durP2;ratioP2;P2;SDS_P1;SDS_P2;PMS_P1;PMS_P2;Temp;Humidity;BMP_temperature;BMP_pressure;BME280_temperature;BME280_humidity;BME280_pressure;Samples;Min_cycle;Max_cycle;Signal;HPM_P1;HPM_P2
2021/01/16 00:04:41;;;;;;;29.50;14.35;;;;;;;-0.30;96.40;101576.03;20978844;28;20040;-73
2021/01/16 00:14:42;;;;;;;28.40;14.88;;;;;;;-0.26;95.44;101580.38;20977625;28;20048;-72
2021/01/16 00:24:43;;;;;;;27.05;12.85;;;;;;;-0.28;94.72;101564.91;20959008;28;20044;-73
2021/01/16 00:34:44;;;;;;;27.98;13.00;;;;;;;-0.41;97.24;101562.25;20974546;28;20041;-73
2021/01/16 00:44:45;;;;;;;28.48;13.23;;;;;;;-0.41;96.61;101559.66;20977009;28;20562;-73
2021/01/16 00:54:46;;;;;;;24.58;12.55;;;;;;;-0.18;95.08;101553.00;20976179;28;20455;-73
2021/01/16 01:04:47;;;;;;;28.98;13.85;;;;;;;-0.35;96.53;101544.25;20974734;28;20392;-72
2021/01/16 01:14:48;;;;;;;31.17;13.40;;;;;;;-0.53;97.34;101555.25;20975471;28;20045;-73
2021/01/16 01:24:49;;;;;;;26.80;14.10;;;;;;;-0.50;97.36;101557.84;20975009;28;20039;-73
2021/01/16 01:34:50;;;;;;;26.85;13.65;;;;;;;-0.60;98.31;101566.31;20974903;28;20131;-75
2021/01/16 01:44:52;;;;;;;28.02;14.38;;;;;;;-0.59;98.24;101562.91;20979134;28;20044;-73
2021/01/16 01:54:54;;;;;;;24.58;12.75;;;;;;;-0.54;97.78;101567.25;20989594;28;20070;-73
2021/01/16 02:04:58;;;;;;;26.60;12.63;;;;;;;-0.58;97.03;101591.22;20987023;28;20048;-73
2021/01/16 02:15:09;;;;;;;27.00;12.00;;;;;;;-0.57;97.17;101581.78;20987338;28;20044;-73
2021/01/16 02:25:14;;;;;;;23.02;11.45;;;;;;;-0.64;95.88;101559.44;20986607;28;20110;-73
2021/01/16 02:35:17;;;;;;;23.02;11.07;;;;;;;-0.63;95.77;101571.44;20984569;28;20052;-73
2021/01/16 02:45:30;;;;;;;20.20;9.90;;;;;;;-0.76;96.17;101561.91;20985112;28;20497;-72
2021/01/16 02:55:32;;;;;;;22.55;10.52;;;;;;;-0.72;96.80;101551.66;20982972;28;20455;-72
2021/01/16 03:05:33;;;;;;;21.80;10.30;;;;;;;-0.75;96.41;101555.88;20982964;28;20087;-72
2021/01/16 03:15:34;;;;;;;22.10;10.88;;;;;;;-0.66;96.76;101550.88;20982396;28;20041;-71
2021/01/16 03:25:35;;;;;;;22.30;10.77;;;;;;;-0.72;95.75;101548.22;20981698;28;20478;-71
2021/01/16 03:35:36;;;;;;;22.02;10.27;;;;;;;-0.75;95.20;101555.88;20979220;28;20110;-72
2021/01/16 03:45:37;;;;;;;22.67;11.18;;;;;;;-0.81;94.97;101556.69;20980417;28;20044;-72
2021/01/16 03:55:39;;;;;;;28.02;12.20;;;;;;;-0.77;95.48;101552.47;20980555;28;20499;-72
2021/01/16 04:05:40;;;;;;;24.20;10.90;;;;;;;-0.83;96.14;101565.22;20977305;28;20652;-73
2021/01/16 04:15:41;;;;;;;26.15;11.98;;;;;;;-0.81;95.85;101561.00;20977938;28;20040;-73
2021/01/16 04:25:42;;;;;;;21.88;12.00;;;;;;;-0.88;96.19;101560.91;20977534;28;20044;-73
2021/01/16 04:35:43;;;;;;;27.83;13.43;;;;;;;-0.90;95.79;101557.44;20976753;28;20040;-73
2021/01/16 04:45:44;;;;;;;30.80;14.52;;;;;;;-0.94;95.54;101560.84;20975911;28;20041;-73
2021/01/16 04:55:47;;;;;;;35.58;15.98;;;;;;;-1.00;96.11;101565.91;20976368;28;20515;-72
2021/01/16 05:05:52;;;;;;;29.80;14.50;;;;;;;-1.06;95.45;101575.25;20975363;28;20062;-72
2021/01/16 05:15:58;;;;;;;31.95;15.23;;;;;;;-1.08;96.18;101570.09;20974733;28;20051;-73
2021/01/16 05:25:59;;;;;;;31.75;14.45;;;;;;;-1.08;96.10;101564.97;20989552;28;20136;-73
2021/01/16 05:36:03;;;;;;;27.13;14.43;;;;;;;-1.10;95.26;101569.22;20989995;28;20072;-72
2021/01/16 05:46:06;;;;;;;38.33;17.80;;;;;;;-1.22;95.43;101552.81;20989647;28;20547;-73
2021/01/16 05:56:08;;;;;;;30.70;15.48;;;;;;;-1.27;95.75;101542.47;20987945;28;20094;-72
2021/01/16 06:06:10;;;;;;;30.55;15.50;;;;;;;-1.30;95.02;101535.59;20987355;28;20033;-72
2021/01/16 06:16:16;;;;;;;30.02;15.55;;;;;;;-1.21;95.58;101529.69;20987121;28;20531;-73
2021/01/16 06:26:20;;;;;;;29.35;15.02;;;;;;;-1.29;95.09;101526.19;20968839;28;20481;-72
2021/01/16 06:36:26;;;;;;;31.23;15.85;;;;;;;-1.30;94.56;101547.56;20989702;28;20048;-73
2021/01/16 06:46:36;;;;;;;32.63;16.52;;;;;;;-1.32;94.59;101541.53;20987113;28;20456;-73
2021/01/16 06:56:41;;;;;;;29.92;14.25;;;;;;;-1.43;94.71;101545.69;20983567;28;20041;-72
2021/01/16 07:06:49;;;;;;;29.33;15.40;;;;;;;-1.60;95.03;101563.44;20975656;28;20114;-73
2021/01/16 07:16:50;;;;;;;30.42;14.82;;;;;;;-1.55;93.93;101554.09;20989168;28;20415;-72
2021/01/16 07:26:53;;;;;;;31.38;15.48;;;;;;;-1.70;93.36;101560.72;20971191;28;20044;-72
2021/01/16 07:36:55;;;;;;;30.30;15.35;;;;;;;-1.67;92.65;101542.78;20986523;28;20098;-72
2021/01/16 07:46:59;;;;;;;30.10;15.18;;;;;;;-1.73;92.99;101554.69;20986276;28;20056;-70
2021/01/16 07:57:05;;;;;;;29.15;14.18;;;;;;;-1.62;92.06;101554.84;20985688;28;20087;-70
2021/01/16 08:07:10;;;;;;;29.50;14.13;;;;;;;-1.53;91.71;101547.28;20984152;28;20107;-70
2021/01/16 08:17:13;;;;;;;30.05;15.30;;;;;;;-1.40;90.88;101540.59;20984052;28;20053;-70
2021/01/16 08:27:18;;;;;;;33.85;14.98;;;;;;;-1.45;90.69;101531.97;20983881;28;20102;-70
2021/01/16 08:37:31;;;;;;;30.00;14.93;;;;;;;-1.39;89.98;101534.63;20983092;28;20488;-70
2021/01/16 08:47:33;;;;;;;32.03;15.50;;;;;;;-1.34;89.78;101553.50;20983325;28;20484;-70
2021/01/16 08:57:37;;;;;;;34.75;16.05;;;;;;;-1.33;89.59;101562.94;20991903;28;20155;-70
2021/01/16 09:07:40;;;;;;;34.83;17.02;;;;;;;-1.24;90.00;101557.91;20998286;28;20463;-70
2021/01/16 09:18:07;;;;;;;33.53;17.27;;;;;;;-1.07;87.37;101556.41;20994997;28;20051;-70
2021/01/16 09:28:08;;;;;;;30.67;14.98;;;;;;;-0.90;87.39;101556.59;20994215;28;20110;-71
2021/01/16 09:38:20;;;;;;;32.80;16.40;;;;;;;-0.90;86.99;101551.44;20992809;28;21490;-71
2021/01/16 09:48:31;;;;;;;35.22;17.90;;;;;;;-0.66;85.75;101546.56;20992660;28;20135;-71
2021/01/16 09:58:40;;;;;;;34.42;16.63;;;;;;;-0.55;85.68;101528.66;20992318;28;20102;-71
2021/01/16 10:08:41;;;;;;;37.45;18.95;;;;;;;-0.41;84.96;101515.94;20990955;28;20040;-71
2021/01/16 10:18:42;;;;;;;37.00;19.13;;;;;;;-0.31;83.91;101492.88;20993294;28;20091;-70
2021/01/16 10:28:49;;;;;;;40.28;18.52;;;;;;;-0.14;84.12;101492.97;20992711;28;20440;-71
2021/01/16 10:38:51;;;;;;;38.85;19.63;;;;;;;0.08;83.87;101486.28;20990262;28;20048;-74
2021/01/16 10:48:52;;;;;;;40.92;19.85;;;;;;;-0.04;83.30;101487.03;20986943;28;20048;-72
2021/01/16 10:59:10;;;;;;;34.17;17.00;;;;;;;-0.06;82.90;101473.31;20989790;28;20087;-72
2021/01/16 11:09:37;;;;;;;36.03;17.50;;;;;;;0.06;81.86;101459.66;20989680;28;20049;-72
2021/01/16 11:19:40;;;;;;;33.05;16.88;;;;;;;0.23;81.71;101446.03;20989022;28;20126;-73
2021/01/16 11:29:43;;;;;;;40.83;18.75;;;;;;;0.34;80.94;101428.06;20988934;28;20102;-73
2021/01/16 11:39:45;;;;;;;41.03;19.42;;;;;;;0.41;80.45;101419.47;20986423;28;20071;-72
2021/01/16 11:49:46;;;;;;;31.90;15.88;;;;;;;-0.14;80.72;101401.22;20980888;28;20041;-71
2021/01/16 11:59:48;;;;;;;35.88;15.70;;;;;;;0.32;78.40;101384.28;20985359;28;20102;-72
2021/01/16 12:09:49;;;;;;;30.92;14.75;;;;;;;0.09;79.01;101380.75;20983993;28;20122;-72
2021/01/16 12:20:02;;;;;;;28.55;13.65;;;;;;;0.22;77.24;101361.94;20983527;28;20041;-72
2021/01/16 12:30:04;;;;;;;27.55;13.65;;;;;;;0.35;77.42;101347.38;20981420;28;20091;-72
2021/01/16 12:40:13;;;;;;;30.05;15.02;;;;;;;0.28;76.49;101346.50;20983617;28;20416;-72
2021/01/16 12:50:15;;;;;;;31.23;16.48;;;;;;;0.54;78.00;101327.69;20983341;28;20041;-73
2021/01/16 13:00:21;;;;;;;33.50;16.48;;;;;;;0.50;76.58;101311.38;20961954;28;20152;-73
2021/01/16 13:10:22;;;;;;;37.10;18.17;;;;;;;0.61;76.18;101298.50;20978271;28;20106;-72
2021/01/16 13:20:23;;;;;;;37.83;18.13;;;;;;;0.05;78.25;101285.53;20982095;28;20052;-73
2021/01/16 13:30:24;;;;;;;37.35;17.98;;;;;;;0.28;77.24;101271.84;20959899;28;20531;-73
2021/01/16 13:40:26;;;;;;;32.72;16.02;;;;;;;0.11;78.17;101265.78;20985111;28;20060;-73
2021/01/16 13:50:34;;;;;;;35.35;17.08;;;;;;;0.14;77.66;101247.81;20996095;28;20090;-72
2021/01/16 14:00:49;;;;;;;35.47;17.55;;;;;;;0.00;79.58;101237.47;20973870;28;20060;-71
2021/01/16 14:10:59;;;;;;;33.10;14.93;;;;;;;-0.16;77.85;101243.44;20993858;28;20094;-73
2021/01/16 14:21:11;;;;;;;30.98;16.40;;;;;;;-0.29;78.21;101239.09;20993720;28;20136;-71
2021/01/16 14:31:17;;;;;;;31.73;15.52;;;;;;;-0.27;78.08;101239.13;20992491;28;20105;-71
2021/01/16 14:41:18;;;;;;;27.08;13.48;;;;;;;-0.35;77.90;101231.34;20992160;28;20055;-72
2021/01/16 14:51:25;;;;;;;31.40;15.98;;;;;;;-0.53;79.16;101219.31;20990838;28;20049;-72
2021/01/16 15:01:37;;;;;;;35.63;18.63;;;;;;;-0.69;81.35;101216.66;20985291;28;20060;-71
2021/01/16 15:11:39;;;;;;;39.88;19.70;;;;;;;-0.88;82.38;101221.72;20989627;28;20048;-72
2021/01/16 15:21:40;;;;;;;40.60;19.60;;;;;;;-1.00;83.37;101206.22;20992856;28;20499;-71
2021/01/16 15:31:43;;;;;;;42.83;19.90;;;;;;;-1.17;83.76;101197.59;20987015;28;20056;-72
2021/01/16 15:41:45;;;;;;;44.03;20.40;;;;;;;-1.21;83.72;101179.53;20987522;28;20064;-71
2021/01/16 15:51:46;;;;;;;41.90;19.90;;;;;;;-1.31;85.11;101183.78;20986485;28;20051;-71
2021/01/16 16:01:47;;;;;;;44.03;21.00;;;;;;;-1.37;86.22;101176.03;20984804;28;20049;-72
2021/01/16 16:11:48;;;;;;;40.63;19.15;;;;;;;-1.39;85.23;101164.91;20985176;28;20087;-71
2021/01/16 16:21:49;;;;;;;40.60;18.73;;;;;;;-1.27;85.44;101165.00;20981227;28;20048;-71
2021/01/16 16:31:50;;;;;;;35.97;17.40;;;;;;;-1.29;84.73;101156.41;20976865;28;20048;-71
2021/01/16 16:41:51;;;;;;;38.42;17.27;;;;;;;-1.27;84.40;101146.16;20978054;28;20048;-71
2021/01/16 16:51:54;;;;;;;36.00;16.85;;;;;;;-1.27;84.16;101136.75;20982269;28;20468;-71
2021/01/16 17:01:55;;;;;;;53.00;23.05;;;;;;;-1.27;85.27;101125.63;20978060;28;20048;-71
2021/01/16 17:11:56;;;;;;;38.80;19.55;;;;;;;-1.33;85.56;101113.59;20982052;28;20048;-71
2021/01/16 17:21:57;;;;;;;38.53;18.73;;;;;;;-1.35;86.22;101103.31;20996702;28;20045;-72
2021/01/16 17:31:58;;;;;;;35.95;18.77;;;;;;;-1.31;86.32;101086.19;20997155;28;20041;-71
2021/01/16 17:42:00;;;;;;;41.47;19.85;;;;;;;-1.28;86.35;101069.97;20997447;28;20571;-71
2021/01/16 17:52:08;;;;;;;37.28;18.10;;;;;;;-1.29;86.64;101046.00;20996663;28;20435;-71
2021/01/16 18:02:18;;;;;;;37.60;18.10;;;;;;;-1.27;86.70;101048.56;20994373;28;20072;-72
2021/01/16 18:12:19;;;;;;;39.58;18.77;;;;;;;-1.55;87.23;101025.34;20994661;28;20502;-71
2021/01/16 18:22:20;;;;;;;41.30;19.67;;;;;;;-1.40;87.66;101010.00;20994160;28;20049;-70
2021/01/16 18:32:24;;;;;;;38.60;19.17;;;;;;;-1.47;88.31;101013.38;20991039;28;20051;-71
2021/01/16 18:42:25;;;;;;;39.72;19.25;;;;;;;-1.77;88.73;101003.81;20989907;28;20040;-71
2021/01/16 18:52:30;;;;;;;40.13;19.05;;;;;;;-1.83;88.64;100983.25;20991479;28;20041;-70
2021/01/16 19:02:31;;;;;;;37.70;18.17;;;;;;;-1.77;89.22;100978.16;20990995;28;20052;-70
2021/01/16 19:12:34;;;;;;;45.40;20.23;;;;;;;-1.98;88.73;100970.34;20989695;28;20072;-70
2021/01/16 19:22:35;;;;;;;52.13;23.27;;;;;;;-1.98;89.80;100965.22;20989129;28;20408;-70
2021/01/16 19:32:36;;;;;;;48.33;21.15;;;;;;;-1.93;88.50;100945.59;20989140;28;20113;-70
2021/01/16 19:42:37;;;;;;;51.05;22.67;;;;;;;-1.92;88.36;100931.91;20988380;28;20048;-70
2021/01/16 19:52:38;;;;;;;45.85;20.58;;;;;;;-1.97;88.56;100907.97;20986189;28;20052;-70
2021/01/16 20:02:40;;;;;;;48.55;21.27;;;;;;;-1.81;87.30;100881.53;20985166;28;20075;-70
2021/01/16 20:12:41;;;;;;;39.78;19.38;;;;;;;-1.86;87.37;100872.97;20985401;28;20036;-70
2021/01/16 20:22:42;;;;;;;40.28;19.50;;;;;;;-1.76;87.67;100851.63;20983428;28;20045;-70
2021/01/16 20:32:43;;;;;;;43.17;19.10;;;;;;;-1.74;86.82;100846.50;20983122;28;20048;-70
2021/01/16 20:42:46;;;;;;;45.10;20.20;;;;;;;-1.77;90.25;100843.91;20983286;28;20610;-70
2021/01/16 20:52:49;;;;;;;46.03;21.20;;;;;;;-1.84;93.51;100840.47;20982231;28;20047;-70
2021/01/16 21:02:51;;;;;;;50.05;22.27;;;;;;;-1.75;93.66;100826.81;20981316;28;20040;-70
2021/01/16 21:12:53;;;;;;;49.00;23.42;;;;;;;-1.91;95.11;100825.91;20982738;28;20128;-70
2021/01/16 21:22:55;;;;;;;44.95;22.00;;;;;;;-1.96;97.35;100801.97;20981777;28;20037;-70
2021/01/16 21:33:02;;;;;;;49.35;23.35;;;;;;;-1.96;97.92;100794.25;20980988;28;20052;-70
2021/01/16 21:43:06;;;;;;;53.30;23.92;;;;;;;-1.98;99.00;100782.31;20979709;28;20138;-71
2021/01/16 21:53:07;;;;;;;49.25;23.02;;;;;;;-1.97;99.19;100772.03;20981079;28;20040;-71
2021/01/16 22:03:08;;;;;;;53.33;24.20;;;;;;;-1.85;99.80;100763.50;20986266;28;20052;-71
2021/01/16 22:13:09;;;;;;;48.08;21.95;;;;;;;-1.78;99.47;100748.13;20994866;28;20091;-71
2021/01/16 22:23:10;;;;;;;49.20;21.85;;;;;;;-1.76;98.97;100731.03;20994342;28;21406;-71
2021/01/16 22:33:11;;;;;;;45.38;21.52;;;;;;;-1.72;99.52;100714.78;20991423;28;20048;-71
2021/01/16 22:43:11;;;;;;;49.28;22.23;;;;;;;-1.73;100.00;100699.41;20992861;28;20086;-72
2021/01/16 22:53:13;;;;;;;51.30;24.02;;;;;;;-1.71;99.68;100697.69;20992685;28;20048;-71
2021/01/16 23:03:14;;;;;;;50.03;24.10;;;;;;;-1.80;99.94;100684.84;20983842;28;20071;-71
2021/01/16 23:13:16;;;;;;;47.00;22.08;;;;;;;-1.73;99.94;100664.31;20982908;28;20048;-71
2021/01/16 23:23:18;;;;;;;48.58;23.98;;;;;;;-1.80;100.00;100651.50;20982996;28;20048;-71
2021/01/16 23:33:27;;;;;;;45.42;22.38;;;;;;;-1.68;100.00;100628.41;20981689;28;20051;-71
2021/01/16 23:43:28;;;;;;;43.75;20.80;;;;;;;-1.59;100.00;100617.28;20983537;28;20056;-71
2021/01/16 23:53:29;;;;;;;44.40;20.83;;;;;;;-1.63;100.00;100611.31;20982792;28;20044;-71
